Albany International Airport Albany US
ICAO: KALB
IATA: ALB
Category: Medium
Scheduled Services: Yes

Elevation: 285 ft
TransAlt. 18000 ft.

Airport Communications:
APP/DEP:118.05
ATIS:120.45
CLNC DEL:127.5
GND:121.7
ARNG OPS:41
BURLINGTON RDO:122.2
TWR:119.5
UNICOM:122.95

KALB Zoom In..

If you have problems with the map follow the link
https://www.worldairports.se/pages/airport.php?
ICAO=KALB

Runways:

(A) RW 01 length 8500 ft width 150 ft
ILS 109.50 / hdg 11

(B) RW 10 length 7200 ft width 150 ft
---- / hdg 101

(C) RW 19 length 8500 ft width 150 ft
ILS 109.50 / hdg 191

(D) RW 28 length 7200 ft width 150 ft
---- / hdg 281

Location; KALB
Day. 14 / Time. 10.51 Zulu
* Altimeter: 30.24
* Temperature: -01° c. -30.2°f.
* Wind from: 310° Speed 10 kn.
Dewpoint: -06° c.
Visibility: 10 Statute Miles.
Clouds: Scattered 4200 ft.
Clouds: Broken 7000 ft.

KALB 141051Z 31010KT 10SM SCT042 BKN070 M01/M06 A3024 RMK AO2 SNE23 SLP242 SNINCR 1/1 P0001 T10111061


Wind From 310°
Speed 10 kn.

 
 
jpsmedia.com for Web Design worldairports.se 2018   terms of use